Time;durP1;ratioP1;P1;durP2;ratioP2;P2;SDS_P1;SDS_P2;PMS_P1;PMS_P2;Temp;Humidity;BMP_temperature;BMP_pressure;BME280_temperature;BME280_humidity;BME280_pressure;Samples;Min_cycle;Max_cycle;Signal;HPM_P1;HPM_P2
2022/10/06 00:00:37;;;;;;;2.13;1.17;;;;;;;-142.37;100.00;59669.53;5112533;28;20031;-70
2022/10/06 00:03:02;;;;;;;2.30;1.00;;;;;;;-142.37;100.00;59669.53;5094264;28;20038;-71
2022/10/06 00:05:29;;;;;;;5.03;1.17;;;;;;;-142.37;100.00;59669.53;5112878;28;20122;-71
2022/10/06 00:07:54;;;;;;;2.65;1.27;;;;;;;-142.37;100.00;59669.53;5112805;28;20036;-70
2022/10/06 00:10:21;;;;;;;1.20;1.05;;;;;;;-142.37;100.00;59669.53;5112437;28;20031;-71
2022/10/06 00:12:50;;;;;;;2.60;1.33;;;;;;;-142.37;100.00;59669.53;5112525;28;20032;-71
2022/10/06 00:15:22;;;;;;;2.13;1.02;;;;;;;-142.37;100.00;59669.53;5094081;28;20044;-71
2022/10/06 00:17:48;;;;;;;4.72;0.95;;;;;;;-142.37;100.00;59669.53;5112806;28;20081;-71
2022/10/06 00:20:14;;;;;;;1.17;0.90;;;;;;;-142.37;100.00;59669.53;5112711;28;20059;-70
2022/10/06 00:22:42;;;;;;;3.55;1.08;;;;;;;-142.37;100.00;59669.53;5094345;28;20066;-70
2022/10/06 00:25:10;;;;;;;3.10;1.35;;;;;;;-142.37;100.00;59669.53;5112236;28;20031;-71
2022/10/06 00:27:41;;;;;;;6.07;1.63;;;;;;;-142.37;100.00;59669.53;5112511;28;20032;-70
2022/10/06 00:30:10;;;;;;;2.75;1.05;;;;;;;-142.37;100.00;59669.53;5112706;28;20045;-71
2022/10/06 00:32:36;;;;;;;6.40;1.10;;;;;;;-142.37;100.00;59669.53;5112633;28;20511;-70
2022/10/06 00:35:03;;;;;;;3.88;1.27;;;;;;;-142.37;100.00;59669.53;5112222;28;20041;-72
2022/10/06 00:37:33;;;;;;;1.63;0.90;;;;;;;-142.37;100.00;59669.53;5094176;28;20067;-70
2022/10/06 00:40:00;;;;;;;3.28;1.63;;;;;;;-142.37;100.00;59669.53;5093994;28;20028;-71
2022/10/06 00:42:29;;;;;;;2.13;1.05;;;;;;;-142.37;100.00;59669.53;5112612;28;20028;-70
2022/10/06 00:44:58;;;;;;;2.65;1.20;;;;;;;-142.37;100.00;59669.53;5093974;28;20028;-70
2022/10/06 00:47:28;;;;;;;2.78;1.23;;;;;;;-142.37;100.00;59669.53;5112363;28;20031;-70
2022/10/06 00:49:54;;;;;;;2.03;1.17;;;;;;;-142.37;100.00;59669.53;5094062;28;20035;-71
2022/10/06 00:52:24;;;;;;;2.42;1.30;;;;;;;-142.37;100.00;59669.53;5112229;28;20028;-69
2022/10/06 00:54:50;;;;;;;7.18;1.08;;;;;;;-142.37;100.00;59669.53;5112245;28;20520;-70
2022/10/06 00:57:18;;;;;;;3.83;1.38;;;;;;;-142.37;100.00;59669.53;5112156;28;20058;-71
2022/10/06 00:59:45;;;;;;;2.78;1.40;;;;;;;-142.37;100.00;59669.53;5094109;28;20426;-71
2022/10/06 01:02:22;;;;;;;3.88;0.90;;;;;;;-142.37;100.00;59669.53;5112338;28;20034;-71
2022/10/06 01:04:55;;;;;;;3.90;1.30;;;;;;;-142.37;100.00;59669.53;5112256;28;20034;-71
2022/10/06 01:07:25;;;;;;;5.05;1.70;;;;;;;-142.37;100.00;59669.53;5112072;28;20023;-70
2022/10/06 01:09:51;;;;;;;6.28;1.20;;;;;;;-142.37;100.00;59669.53;5116014;28;20023;-69
2022/10/06 01:12:19;;;;;;;3.22;1.50;;;;;;;-142.37;100.00;59669.53;5116053;28;20035;-70
2022/10/06 01:14:45;;;;;;;2.40;0.93;;;;;;;-142.37;100.00;59669.53;5097575;28;20039;-71
2022/10/06 01:17:11;;;;;;;3.80;1.25;;;;;;;-142.37;100.00;59669.53;5097144;28;20540;-70
2022/10/06 01:19:55;;;;;;;3.28;1.40;;;;;;;-142.37;100.00;59669.53;5097407;28;20115;-69
2022/10/06 01:22:28;;;;;;;4.05;1.27;;;;;;;-142.37;100.00;59669.53;5115706;28;20499;-70
2022/10/06 01:24:54;;;;;;;1.83;1.20;;;;;;;-142.37;100.00;59669.53;5116012;28;20039;-69
2022/10/06 01:27:22;;;;;;;1.75;1.10;;;;;;;-142.37;100.00;59669.53;5115529;28;20055;-70
2022/10/06 01:29:52;;;;;;;2.90;1.35;;;;;;;-142.37;100.00;59669.53;5097105;28;20037;-71
2022/10/06 01:32:18;;;;;;;12.02;1.55;;;;;;;-142.37;100.00;59669.53;5115561;28;20111;-69
2022/10/06 01:34:44;;;;;;;3.20;1.50;;;;;;;-142.37;100.00;59669.53;5115588;28;20024;-70
2022/10/06 01:37:10;;;;;;;5.60;1.40;;;;;;;-142.37;100.00;59669.53;5096975;28;20080;-72
2022/10/06 01:39:35;;;;;;;2.63;1.27;;;;;;;-142.37;100.00;59669.53;5097153;28;20038;-71
2022/10/06 01:42:02;;;;;;;5.43;1.75;;;;;;;-142.37;100.00;59669.53;5115391;28;20114;-71
2022/10/06 01:44:28;;;;;;;2.58;1.17;;;;;;;-142.37;100.00;59669.53;5115706;28;20072;-71
2022/10/06 01:46:53;;;;;;;2.20;1.40;;;;;;;-142.37;100.00;59669.53;5115226;28;20035;-71
2022/10/06 01:49:19;;;;;;;3.67;1.38;;;;;;;-142.37;100.00;59669.53;5114947;28;20035;-70
2022/10/06 01:51:46;;;;;;;4.35;1.13;;;;;;;-142.37;100.00;59669.53;5115138;28;20476;-71
2022/10/06 01:54:13;;;;;;;5.13;2.05;;;;;;;-142.37;100.00;59669.53;5115149;28;20118;-70
2022/10/06 01:56:38;;;;;;;4.10;1.92;;;;;;;-142.37;100.00;59669.53;5074102;28;20045;-70
2022/10/06 01:59:04;;;;;;;4.43;1.52;;;;;;;-142.37;100.00;59669.53;5072880;28;20087;-71
2022/10/06 02:01:29;;;;;;;5.35;2.03;;;;;;;-142.37;100.00;59669.53;5074239;28;20040;-71
2022/10/06 02:03:55;;;;;;;3.53;1.50;;;;;;;-142.37;100.00;59669.53;5073144;28;20036;-72
2022/10/06 02:06:20;;;;;;;4.45;1.70;;;;;;;-142.37;100.00;59669.53;5073066;28;20534;-72
2022/10/06 02:08:46;;;;;;;2.85;1.60;;;;;;;-142.37;100.00;59669.53;5072924;28;20049;-70
2022/10/06 02:11:12;;;;;;;4.65;1.90;;;;;;;-142.37;100.00;59669.53;5073900;28;20032;-70
2022/10/06 02:13:38;;;;;;;4.22;2.00;;;;;;;-142.37;100.00;59669.53;5074326;28;20408;-71
2022/10/06 02:16:06;;;;;;;5.90;1.63;;;;;;;-142.37;100.00;59669.53;5073972;28;20040;-70
2022/10/06 02:18:33;;;;;;;4.05;1.23;;;;;;;-142.37;100.00;59669.53;5073974;28;20033;-70
2022/10/06 02:20:59;;;;;;;5.22;1.45;;;;;;;-142.37;100.00;59669.53;5073349;28;20020;-71
2022/10/06 02:23:24;;;;;;;3.17;1.45;;;;;;;-142.37;100.00;59669.53;5073932;28;20082;-74
2022/10/06 02:25:57;;;;;;;3.53;1.95;;;;;;;-142.37;100.00;59669.53;5073966;28;20436;-70
2022/10/06 02:28:23;;;;;;;2.83;1.70;;;;;;;-142.37;100.00;59669.53;5074085;28;20039;-71
2022/10/06 02:30:48;;;;;;;6.35;1.92;;;;;;;-142.37;100.00;59669.53;5072615;28;20024;-71
2022/10/06 02:33:14;;;;;;;5.00;1.80;;;;;;;-142.37;100.00;59669.53;5073529;28;20029;-71
2022/10/06 02:35:41;;;;;;;6.63;1.73;;;;;;;-142.37;100.00;59669.53;5073904;28;20025;-70
2022/10/06 02:38:07;;;;;;;6.10;2.22;;;;;;;-142.37;100.00;59669.53;5072190;28;20374;-70
2022/10/06 02:40:32;;;;;;;2.85;1.67;;;;;;;-142.37;100.00;59669.53;5072149;28;20035;-70
2022/10/06 02:42:58;;;;;;;3.80;1.85;;;;;;;-142.37;100.00;59669.53;5071661;28;20064;-70
2022/10/06 02:45:23;;;;;;;4.75;2.15;;;;;;;-142.37;100.00;59669.53;5073281;28;20071;-70
2022/10/06 02:47:50;;;;;;;3.00;1.83;;;;;;;-142.37;100.00;59669.53;5072054;28;20051;-69
2022/10/06 02:50:16;;;;;;;3.97;1.85;;;;;;;-142.37;100.00;59669.53;5073734;28;20024;-70
2022/10/06 02:52:41;;;;;;;5.78;2.00;;;;;;;-142.37;100.00;59669.53;5071917;28;20474;-71
2022/10/06 02:55:08;;;;;;;3.53;1.80;;;;;;;-142.37;100.00;59669.53;5071466;28;20493;-71
2022/10/06 02:57:33;;;;;;;4.75;2.15;;;;;;;-142.37;100.00;59669.53;5073099;28;20075;-71
2022/10/06 02:59:59;;;;;;;5.57;1.88;;;;;;;-142.37;100.00;59669.53;5072099;28;20163;-70
2022/10/06 03:02:25;;;;;;;4.70;1.80;;;;;;;-142.37;100.00;59669.53;5073135;28;20040;-72
2022/10/06 03:04:50;;;;;;;7.85;2.17;;;;;;;-142.37;100.00;59669.53;5071564;28;20044;-70
2022/10/06 03:07:16;;;;;;;5.40;1.92;;;;;;;-142.37;100.00;59669.53;5071541;28;20032;-71
2022/10/06 03:09:42;;;;;;;6.38;1.60;;;;;;;-142.37;100.00;59669.53;5071597;28;20024;-70
2022/10/06 03:12:08;;;;;;;5.43;2.10;;;;;;;-142.37;100.00;59669.53;5071401;28;20440;-70
2022/10/06 03:14:33;;;;;;;2.70;1.67;;;;;;;-142.37;100.00;59669.53;5073044;28;20040;-71
2022/10/06 03:16:59;;;;;;;5.63;2.05;;;;;;;-142.37;100.00;59669.53;5072841;28;20024;-70
2022/10/06 03:19:24;;;;;;;5.90;1.80;;;;;;;-142.37;100.00;59669.53;5073232;28;20115;-71
2022/10/06 03:21:50;;;;;;;6.25;2.40;;;;;;;-142.37;100.00;59669.53;5072512;28;20043;-69
2022/10/06 03:24:16;;;;;;;3.95;2.45;;;;;;;-142.37;100.00;59669.53;5071259;28;20473;-70
2022/10/06 03:26:44;;;;;;;3.97;1.90;;;;;;;-142.37;100.00;59669.53;5072493;28;20082;-69
2022/10/06 03:29:10;;;;;;;4.32;1.92;;;;;;;-142.37;100.00;59669.53;5071076;28;20493;-71
2022/10/06 03:31:37;;;;;;;3.58;2.00;;;;;;;-142.37;100.00;59669.53;5071468;28;20028;-70
2022/10/06 03:34:03;;;;;;;3.13;2.60;;;;;;;-142.37;100.00;59669.53;5072515;28;20101;-70
2022/10/06 03:36:32;;;;;;;6.38;2.15;;;;;;;-142.37;100.00;59669.53;5071098;28;20059;-72
2022/10/06 03:38:58;;;;;;;2.75;1.88;;;;;;;-142.37;100.00;59669.53;5072061;28;20032;-70
2022/10/06 03:41:26;;;;;;;6.55;2.92;;;;;;;-142.37;100.00;59669.53;5070801;28;20032;-69
2022/10/06 03:43:53;;;;;;;3.17;2.00;;;;;;;-142.37;100.00;59669.53;5071166;28;20036;-70
2022/10/06 03:46:22;;;;;;;7.28;2.13;;;;;;;-142.37;100.00;59669.53;5072153;28;20028;-72
2022/10/06 03:48:49;;;;;;;4.03;2.00;;;;;;;-142.37;100.00;59669.53;5072070;28;20487;-71
2022/10/06 03:51:26;;;;;;;3.25;2.15;;;;;;;-142.37;100.00;59669.53;5070486;28;20389;-70
2022/10/06 03:53:52;;;;;;;5.72;2.00;;;;;;;-142.37;100.00;59669.53;5070666;28;20115;-70
2022/10/06 03:56:23;;;;;;;8.02;2.38;;;;;;;-142.37;100.00;59669.53;5104706;28;20047;-71
2022/10/06 03:58:54;;;;;;;2.58;2.08;;;;;;;-142.37;100.00;59669.53;5112769;28;20464;-70
2022/10/06 04:01:30;;;;;;;6.32;2.60;;;;;;;-142.37;100.00;59669.53;5093828;28;20034;-72
2022/10/06 04:03:58;;;;;;;6.65;2.42;;;;;;;-142.37;100.00;59669.53;5094275;28;20020;-72
2022/10/06 04:06:25;;;;;;;5.95;2.78;;;;;;;-142.37;100.00;59669.53;5112127;28;20036;-72
2022/10/06 04:08:51;;;;;;;3.95;2.45;;;;;;;-142.37;100.00;59669.53;5112452;28;20032;-71
2022/10/06 04:11:28;;;;;;;5.97;3.22;;;;;;;-142.37;100.00;59669.53;5094196;28;20043;-72
2022/10/06 04:14:00;;;;;;;5.88;3.25;;;;;;;-142.37;100.00;59669.53;5112326;28;20373;-72
2022/10/06 04:16:31;;;;;;;6.78;3.13;;;;;;;-142.37;100.00;59669.53;5112767;28;20031;-72
2022/10/06 04:18:59;;;;;;;6.88;3.22;;;;;;;-142.37;100.00;59669.53;5111836;28;20082;-71
2022/10/06 04:21:26;;;;;;;6.30;3.75;;;;;;;-142.37;100.00;59669.53;5111590;28;20544;-71
2022/10/06 04:23:53;;;;;;;8.63;4.40;;;;;;;-142.37;100.00;59669.53;5093866;28;20030;-72
2022/10/06 04:26:21;;;;;;;10.45;5.57;;;;;;;-142.37;100.00;59669.53;5094008;28;20034;-63
2022/10/06 04:28:47;;;;;;;11.35;5.75;;;;;;;-142.37;100.00;59669.53;5112023;28;20032;-63
2022/10/06 04:31:18;;;;;;;7.45;5.18;;;;;;;-142.37;100.00;59669.53;5093633;28;20027;-64
2022/10/06 04:33:45;;;;;;;6.20;3.33;;;;;;;-142.37;100.00;59669.53;5094100;28;20028;-64
2022/10/06 04:36:16;;;;;;;5.32;2.53;;;;;;;-142.37;100.00;59669.53;5112209;28;20024;-61
2022/10/06 04:38:42;;;;;;;3.25;2.17;;;;;;;-142.37;100.00;59669.53;5111890;28;20107;-56
2022/10/06 04:41:17;;;;;;;2.78;2.00;;;;;;;-142.37;100.00;59669.53;5111989;28;20491;-56
2022/10/06 04:43:46;;;;;;;2.80;2.28;;;;;;;-142.37;100.00;59669.53;5096362;28;20080;-58
2022/10/06 04:46:13;;;;;;;2.70;1.90;;;;;;;-142.37;100.00;59669.53;5116265;28;20387;-58
2022/10/06 04:48:38;;;;;;;2.33;1.80;;;;;;;-142.37;100.00;59669.53;5116004;28;20031;-57
2022/10/06 04:51:07;;;;;;;3.60;1.50;;;;;;;-142.37;100.00;59669.53;5115905;28;20034;-58
2022/10/06 04:53:33;;;;;;;3.30;1.25;;;;;;;-142.37;100.00;59669.53;5116204;28;20027;-57
2022/10/06 04:56:12;;;;;;;3.95;1.10;;;;;;;-142.37;100.00;59669.53;5096592;28;20487;-59
2022/10/06 04:58:39;;;;;;;1.92;0.80;;;;;;;-142.37;100.00;59669.53;5115732;28;20426;-57
2022/10/06 05:01:35;;;;;;;1.98;0.70;;;;;;;-142.37;100.00;59669.53;5097103;28;20118;-57
2022/10/06 05:04:02;;;;;;;0.60;0.40;;;;;;;-142.37;100.00;59669.53;5112987;28;20050;-59
2022/10/06 05:06:33;;;;;;;2.40;0.63;;;;;;;-142.37;100.00;59669.53;5096961;28;20038;-58
2022/10/06 05:09:02;;;;;;;1.35;0.70;;;;;;;-142.37;100.00;59669.53;5096328;28;20110;-59
2022/10/06 05:11:28;;;;;;;2.47;0.60;;;;;;;-142.37;100.00;59669.53;5115842;28;20027;-57
2022/10/06 05:13:56;;;;;;;4.28;1.00;;;;;;;-142.37;100.00;59669.53;5115220;28;20107;-58
2022/10/06 05:16:23;;;;;;;1.10;0.57;;;;;;;-142.37;100.00;59669.53;5115350;28;20024;-59
2022/10/06 05:18:50;;;;;;;0.73;0.50;;;;;;;-142.37;100.00;59669.53;5114726;28;20433;-58
2022/10/06 05:21:18;;;;;;;3.97;0.60;;;;;;;-142.37;100.00;59669.53;5114277;28;20019;-60
2022/10/06 05:23:45;;;;;;;3.03;0.60;;;;;;;-142.37;100.00;59669.53;5096872;28;20097;-58
2022/10/06 05:26:13;;;;;;;2.70;0.65;;;;;;;-142.37;100.00;59669.53;5114609;28;20028;-59
2022/10/06 05:28:39;;;;;;;0.75;0.30;;;;;;;-142.37;100.00;59669.53;5114974;28;20477;-59
2022/10/06 05:31:26;;;;;;;2.05;0.28;;;;;;;-142.37;100.00;59669.53;5114330;28;20039;-60
2022/10/06 05:33:53;;;;;;;2.55;0.63;;;;;;;-142.37;100.00;59669.53;5114616;28;20197;-58
2022/10/06 05:36:21;;;;;;;7.18;0.70;;;;;;;-142.37;100.00;59669.53;5114422;28;20464;-59
2022/10/06 05:38:47;;;;;;;1.63;0.60;;;;;;;-142.37;100.00;59669.53;5114268;28;20070;-59
2022/10/06 05:41:14;;;;;;;2.03;0.50;;;;;;;-142.37;100.00;59669.53;5095532;28;20402;-58
2022/10/06 05:43:40;;;;;;;1.95;0.73;;;;;;;-142.37;100.00;59669.53;5095556;28;20028;-58
2022/10/06 05:46:11;;;;;;;6.93;0.40;;;;;;;-142.37;100.00;59669.53;5113769;28;20051;-59
2022/10/06 05:48:37;;;;;;;2.22;0.60;;;;;;;-142.37;100.00;59669.53;5113729;28;20032;-60
2022/10/06 05:51:05;;;;;;;2.47;0.65;;;;;;;-142.37;100.00;59669.53;5113210;28;20122;-60
2022/10/06 05:53:32;;;;;;;4.45;0.43;;;;;;;-142.37;100.00;59669.53;5095152;28;20042;-60
2022/10/06 05:56:05;;;;;;;0.60;0.30;;;;;;;-142.37;100.00;59669.53;5112587;28;20088;-60
2022/10/06 05:58:31;;;;;;;2.67;0.90;;;;;;;-142.37;100.00;59669.53;5095042;28;20032;-60
2022/10/06 06:01:18;;;;;;;3.83;0.45;;;;;;;-142.37;100.00;59669.53;5093943;28;20051;-61
2022/10/06 06:03:56;;;;;;;2.40;0.40;;;;;;;-142.37;100.00;59669.53;5095123;28;20027;-59
2022/10/06 06:06:33;;;;;;;1.58;0.70;;;;;;;-142.37;100.00;59669.53;5094744;28;20031;-64
2022/10/06 06:09:05;;;;;;;0.82;0.40;;;;;;;-142.37;100.00;59669.53;5113144;28;20039;-63
2022/10/06 06:11:31;;;;;;;3.88;1.42;;;;;;;-142.37;100.00;59669.53;5112491;28;20034;-68
2022/10/06 06:14:07;;;;;;;2.25;0.25;;;;;;;-142.37;100.00;59669.53;5094328;28;20116;-68
2022/10/06 06:16:34;;;;;;;2.30;0.60;;;;;;;-142.37;100.00;59669.53;5095095;28;20028;-67
2022/10/06 06:19:00;;;;;;;1.63;0.30;;;;;;;-142.37;100.00;59669.53;5113297;28;20020;-67
2022/10/06 06:21:27;;;;;;;2.47;0.40;;;;;;;-142.37;100.00;59669.53;5093556;28;20027;-66
2022/10/06 06:23:53;;;;;;;3.97;0.47;;;;;;;-142.37;100.00;59669.53;5112800;28;20030;-65
2022/10/06 06:26:24;;;;;;;4.32;0.50;;;;;;;-142.37;100.00;59669.53;5112626;28;20032;-65
2022/10/06 06:28:53;;;;;;;2.05;0.55;;;;;;;-142.37;100.00;59669.53;5094076;28;20465;-66
2022/10/06 06:31:25;;;;;;;4.65;0.80;;;;;;;-142.37;100.00;59669.53;5112649;28;20080;-65
2022/10/06 06:33:52;;;;;;;2.22;0.55;;;;;;;-142.37;100.00;59669.53;5093812;28;20032;-66
2022/10/06 06:36:24;;;;;;;3.30;0.40;;;;;;;-142.37;100.00;59669.53;5112371;28;20028;-65
2022/10/06 06:38:54;;;;;;;2.08;0.40;;;;;;;-142.37;100.00;59669.53;5112590;28;20046;-66
2022/10/06 06:41:23;;;;;;;3.42;0.40;;;;;;;-142.37;100.00;59669.53;5093638;28;20058;-66
2022/10/06 06:43:49;;;;;;;3.03;1.02;;;;;;;-142.37;100.00;59669.53;5094293;28;20023;-65
2022/10/06 06:46:17;;;;;;;2.30;0.88;;;;;;;-142.37;100.00;59669.53;5113149;28;20039;-65
2022/10/06 06:48:43;;;;;;;1.55;0.57;;;;;;;-142.37;100.00;59669.53;5112641;28;20028;-66
2022/10/06 06:51:10;;;;;;;4.38;0.75;;;;;;;-142.37;100.00;59669.53;5112473;28;20483;-65
2022/10/06 06:53:37;;;;;;;3.10;0.43;;;;;;;-142.37;100.00;59669.53;5112522;28;20036;-66
2022/10/06 06:56:04;;;;;;;2.90;0.75;;;;;;;-142.37;100.00;59669.53;5111888;28;20500;-64
2022/10/06 06:58:30;;;;;;;3.28;1.00;;;;;;;-142.37;100.00;59669.53;5112110;28;20084;-65
2022/10/06 07:01:13;;;;;;;4.00;0.52;;;;;;;-142.37;100.00;59669.53;5093734;28;20057;-66
2022/10/06 07:03:40;;;;;;;4.15;0.52;;;;;;;-142.37;100.00;59669.53;5112485;28;20027;-66
2022/10/06 07:06:08;;;;;;;1.65;0.77;;;;;;;-142.37;100.00;59669.53;5094026;28;20050;-67
2022/10/06 07:08:41;;;;;;;4.07;0.60;;;;;;;-142.37;100.00;59669.53;5112683;28;20536;-68
2022/10/06 07:11:18;;;;;;;5.82;0.85;;;;;;;-142.37;100.00;59669.53;5094042;28;20484;-73
2022/10/06 07:13:45;;;;;;;4.53;0.68;;;;;;;-142.37;100.00;59669.53;5112970;28;20377;-73
2022/10/06 07:27:28;;;;;;;3.83;0.68;;;;;;;-142.37;100.00;59669.53;5112767;28;20092;-73
2022/10/06 07:29:55;;;;;;;4.78;0.77;;;;;;;-142.37;100.00;59669.53;5094312;28;20042;-75
2022/10/06 07:32:21;;;;;;;2.75;0.80;;;;;;;-142.37;100.00;59669.53;5093415;28;20051;-72
2022/10/06 07:34:48;;;;;;;3.65;0.82;;;;;;;-142.37;100.00;59669.53;5112006;28;20433;-75
2022/10/06 07:37:14;;;;;;;4.30;0.95;;;;;;;-142.37;100.00;59669.53;5112902;28;20030;-73
2022/10/06 07:39:39;;;;;;;2.00;0.50;;;;;;;-142.37;100.00;59669.53;5111982;28;20024;-73
2022/10/06 07:42:13;;;;;;;4.28;0.50;;;;;;;-142.37;100.00;59669.53;5093926;28;20126;-73
2022/10/06 07:44:43;;;;;;;6.70;1.05;;;;;;;-142.37;100.00;59669.53;5112160;28;20498;-74
2022/10/06 07:47:09;;;;;;;4.03;0.50;;;;;;;-142.37;100.00;59669.53;5093068;28;20028;-74
2022/10/06 07:49:35;;;;;;;6.20;1.63;;;;;;;-142.37;100.00;59669.53;5093551;28;20173;-72
2022/10/06 07:52:03;;;;;;;2.20;0.52;;;;;;;-142.37;100.00;59669.53;5112661;28;20446;-74
2022/10/06 07:54:29;;;;;;;5.13;0.80;;;;;;;-142.37;100.00;59669.53;5093071;28;20036;-73
2022/10/06 07:56:55;;;;;;;4.35;1.02;;;;;;;-142.37;100.00;59669.53;5093830;28;20051;-74
2022/10/06 07:59:20;;;;;;;3.20;0.90;;;;;;;-142.37;100.00;59669.53;5093091;28;20024;-74
2022/10/06 08:01:49;;;;;;;2.83;0.85;;;;;;;-142.37;100.00;59669.53;5111652;28;20034;-72
2022/10/06 08:04:15;;;;;;;6.78;1.15;;;;;;;-142.37;100.00;59669.53;5111920;28;20396;-74
2022/10/06 08:06:41;;;;;;;4.53;0.90;;;;;;;-142.37;100.00;59669.53;5111946;28;20031;-75
2022/10/06 08:09:06;;;;;;;6.10;0.77;;;;;;;-142.37;100.00;59669.53;5093655;28;20127;-74
2022/10/06 08:11:33;;;;;;;3.72;1.00;;;;;;;-142.37;100.00;59669.53;5093642;28;20039;-72
2022/10/06 08:13:59;;;;;;;7.78;1.60;;;;;;;-142.37;100.00;59669.53;5093498;28;20104;-73
2022/10/06 08:16:29;;;;;;;4.50;0.82;;;;;;;-142.37;100.00;59669.53;5093131;28;20442;-72
2022/10/06 08:18:57;;;;;;;7.35;1.55;;;;;;;-142.37;100.00;59669.53;5111165;28;20032;-71
2022/10/06 08:21:29;;;;;;;8.32;2.17;;;;;;;-142.37;100.00;59669.53;5111807;28;20031;-69
2022/10/06 08:23:56;;;;;;;3.60;1.23;;;;;;;-142.37;100.00;59669.53;5093313;28;20073;-70
2022/10/06 08:26:24;;;;;;;4.25;1.30;;;;;;;-142.37;100.00;59669.53;5111385;28;20042;-68
2022/10/06 08:28:52;;;;;;;5.82;0.88;;;;;;;-142.37;100.00;59669.53;5111639;28;20023;-69
2022/10/06 08:31:21;;;;;;;1.27;0.80;;;;;;;-142.37;100.00;59669.53;5112354;28;20077;-67
2022/10/06 08:33:47;;;;;;;4.95;0.93;;;;;;;-142.37;100.00;59669.53;5112542;28;20057;-70
2022/10/06 08:36:18;;;;;;;6.38;1.05;;;;;;;-142.37;100.00;59669.53;5112073;28;20039;-69
2022/10/06 08:38:50;;;;;;;6.72;1.17;;;;;;;-142.37;100.00;59669.53;5111673;28;20438;-68
2022/10/06 08:41:50;;;;;;;4.90;0.47;;;;;;;-142.37;100.00;59669.53;5092999;28;20050;-68
2022/10/06 08:44:25;;;;;;;6.50;0.73;;;;;;;-142.37;100.00;59669.53;5109130;28;20408;-70
2022/10/06 08:47:22;;;;;;;5.43;1.05;;;;;;;-142.37;100.00;59669.53;5112054;28;20103;-68
2022/10/06 08:49:51;;;;;;;5.95;1.40;;;;;;;-142.37;100.00;59669.53;5092278;28;20066;-69
2022/10/06 08:52:50;;;;;;;6.03;1.75;;;;;;;-142.37;100.00;59669.53;5093188;28;20472;-68
2022/10/06 08:56:00;;;;;;;4.60;1.55;;;;;;;-142.37;100.00;59669.53;5075136;28;20054;-67
2022/10/06 08:58:34;;;;;;;3.10;1.00;;;;;;;-142.37;100.00;59669.53;4992397;28;20030;-66
2022/10/06 09:01:08;;;;;;;;;;;;;;;-142.37;100.00;59669.53;5083490;28;20063;-67
2022/10/06 09:03:36;;;;;;;6.18;1.15;;;;;;;-142.37;100.00;59669.53;5111365;28;20010;-66
2022/10/06 09:06:30;;;;;;;4.13;1.20;;;;;;;-142.37;100.00;59669.53;5111188;28;20447;-67
2022/10/06 09:09:10;;;;;;;1.30;0.70;;;;;;;-142.37;100.00;59669.53;5093419;28;20062;-67
2022/10/06 09:11:45;;;;;;;5.40;1.00;;;;;;;-142.37;100.00;59669.53;5092653;28;20027;-67
2022/10/06 09:14:23;;;;;;;6.72;1.00;;;;;;;-142.37;100.00;59669.53;5110786;28;20031;-66
2022/10/06 09:16:57;;;;;;;3.65;0.60;;;;;;;-142.37;100.00;59669.53;5110961;28;20082;-65
2022/10/06 09:19:31;;;;;;;4.80;0.90;;;;;;;-142.37;100.00;59669.53;5092973;28;20039;-65
2022/10/06 09:21:59;;;;;;;6.78;1.83;;;;;;;-142.37;100.00;59669.53;5092475;28;20043;-65
2022/10/06 09:24:48;;;;;;;2.45;0.80;;;;;;;-142.37;100.00;59669.53;5110708;28;20024;-64
2022/10/06 09:27:31;;;;;;;8.45;0.98;;;;;;;-142.37;100.00;59669.53;5110457;28;20439;-65
2022/10/06 09:29:58;;;;;;;6.28;1.00;;;;;;;-142.37;100.00;59669.53;5111359;28;20382;-65
2022/10/06 09:32:27;;;;;;;3.75;0.70;;;;;;;-142.37;100.00;59669.53;5114618;28;20024;-64
2022/10/06 09:34:58;;;;;;;6.78;1.27;;;;;;;-142.37;100.00;59669.53;5095456;28;20057;-65
2022/10/06 09:37:24;;;;;;;4.03;1.52;;;;;;;-142.37;100.00;59669.53;5095573;28;20024;-64
2022/10/06 09:39:51;;;;;;;4.55;0.95;;;;;;;-142.37;100.00;59669.53;5096077;28;20035;-65
2022/10/06 09:42:34;;;;;;;5.70;1.55;;;;;;;-142.37;100.00;59669.53;5113790;28;20129;-66
2022/10/06 09:45:06;;;;;;;4.35;0.70;;;;;;;-142.37;100.00;59669.53;5113542;28;20028;-66
2022/10/06 09:47:34;;;;;;;4.78;1.35;;;;;;;-142.37;100.00;59669.53;5114058;28;20456;-65
2022/10/06 09:50:13;;;;;;;4.65;1.20;;;;;;;-142.37;100.00;59669.53;5114059;28;20035;-65
2022/10/06 09:52:59;;;;;;;7.20;2.45;;;;;;;-142.37;100.00;59669.53;5095855;28;20032;-65
2022/10/06 09:55:32;;;;;;;9.45;2.55;;;;;;;-142.37;100.00;59669.53;5114273;28;20048;-66
2022/10/06 09:57:59;;;;;;;4.82;1.30;;;;;;;-142.37;100.00;59669.53;5113413;28;20458;-66
2022/10/06 10:00:41;;;;;;;6.20;1.10;;;;;;;-142.37;100.00;59669.53;5094828;28;20028;-66
2022/10/06 10:03:12;;;;;;;5.05;1.23;;;;;;;-142.37;100.00;59669.53;5113396;28;20039;-65
2022/10/06 10:05:45;;;;;;;4.43;1.25;;;;;;;-142.37;100.00;59669.53;5095241;28;20038;-66
2022/10/06 10:08:40;;;;;;;7.53;1.40;;;;;;;-142.37;100.00;59669.53;5113233;28;20073;-66
2022/10/06 10:14:02;;;;;;;6.88;1.50;;;;;;;-142.37;100.00;59669.53;5113690;28;20172;-64
2022/10/06 10:16:33;;;;;;;4.47;0.90;;;;;;;-142.37;100.00;59669.53;5094811;28;20500;-66
2022/10/06 10:19:01;;;;;;;7.80;1.42;;;;;;;-142.37;100.00;59669.53;5095002;28;20031;-67
2022/10/06 10:21:34;;;;;;;12.02;5.93;;;;;;;-142.37;100.00;59669.53;5094983;28;20408;-65
2022/10/06 10:24:02;;;;;;;8.45;1.60;;;;;;;-142.37;100.00;59669.53;5094882;28;20027;-66
2022/10/06 10:26:52;;;;;;;16.30;7.05;;;;;;;-142.37;100.00;59669.53;5112889;28;20028;-66
2022/10/06 10:30:00;;;;;;;5.15;1.50;;;;;;;-142.37;100.00;59669.53;5112767;28;20027;-66
2022/10/06 10:32:51;;;;;;;2.95;1.05;;;;;;;-142.37;100.00;59669.53;5112792;28;20061;-66
2022/10/06 10:35:33;;;;;;;8.40;1.15;;;;;;;-142.37;100.00;59669.53;5093546;28;20023;-67
2022/10/06 10:38:18;;;;;;;7.28;1.60;;;;;;;-142.37;100.00;59669.53;5113344;28;20384;-68
2022/10/06 10:40:47;;;;;;;2.40;0.70;;;;;;;-142.37;100.00;59669.53;5112867;28;20111;-66
2022/10/06 10:43:30;;;;;;;4.70;1.23;;;;;;;-142.37;100.00;59669.53;5094488;28;20039;-68
2022/10/06 10:46:05;;;;;;;4.03;1.13;;;;;;;-142.37;100.00;59669.53;5113324;28;20032;-65
2022/10/06 10:49:00;;;;;;;6.43;0.82;;;;;;;-142.37;100.00;59669.53;5094014;28;20036;-67
2022/10/06 10:51:32;;;;;;;3.90;1.20;;;;;;;-142.37;100.00;59669.53;5112971;28;20019;-67
2022/10/06 10:54:24;;;;;;;5.97;1.15;;;;;;;-142.37;100.00;59669.53;5112495;28;20118;-68
2022/10/06 10:56:51;;;;;;;4.88;0.68;;;;;;;-142.37;100.00;59669.53;5112525;28;20040;-68
2022/10/06 10:59:36;;;;;;;4.10;1.25;;;;;;;-142.37;100.00;59669.53;5094226;28;20070;-69
2022/10/06 11:02:19;;;;;;;1.85;0.63;;;;;;;-142.37;100.00;59669.53;5112573;28;20035;-67
2022/10/06 11:04:48;;;;;;;5.85;0.70;;;;;;;-142.37;100.00;59669.53;5112956;28;20051;-67
2022/10/06 11:07:22;;;;;;;4.80;1.05;;;;;;;-142.37;100.00;59669.53;5112650;28;20031;-68
2022/10/06 11:10:12;;;;;;;2.75;0.50;;;;;;;-142.37;100.00;59669.53;5094323;28;20599;-67
2022/10/06 11:13:10;;;;;;;3.03;0.65;;;;;;;-142.37;100.00;59669.53;5112963;28;20035;-68
2022/10/06 11:16:09;;;;;;;3.30;0.98;;;;;;;-142.37;100.00;59669.53;5112481;28;20028;-69
2022/10/06 11:19:03;;;;;;;11.70;1.10;;;;;;;-142.37;100.00;59669.53;5112973;28;20501;-68
2022/10/06 11:21:41;;;;;;;3.22;0.85;;;;;;;-142.37;100.00;59669.53;5112942;28;20541;-67
2022/10/06 11:24:37;;;;;;;2.30;0.55;;;;;;;-142.37;100.00;59669.53;5095015;28;20053;-68
2022/10/06 11:27:12;;;;;;;3.03;0.82;;;;;;;-142.37;100.00;59669.53;5094610;28;20107;-68
2022/10/06 11:30:04;;;;;;;2.42;0.50;;;;;;;-142.37;100.00;59669.53;5093885;28;20123;-68
2022/10/06 11:32:46;;;;;;;1.05;0.30;;;;;;;-142.37;100.00;59669.53;5092088;28;20130;-68
2022/10/06 11:35:22;;;;;;;4.13;1.05;;;;;;;-142.37;100.00;59669.53;5093567;28;20457;-68
2022/10/06 11:38:18;;;;;;;3.20;0.43;;;;;;;-142.37;100.00;59669.53;5112185;28;20114;-68
2022/10/06 11:40:55;;;;;;;3.45;0.47;;;;;;;-142.37;100.00;59669.53;5112037;28;20096;-68